FW3112 Weather Reports


Display with metric or nautical units.
time (UTC)temp
F
wind
direction
speed
MPH
gust
MPH
rain 1hr
in
rain 24hr
in
rain mn
in
humidity
%
barometer
mb
20210616011843 71 165 4.0 21.0 0.00 0.00 0.34 85 1016.8
20210616010842 81 85 18.0 20.0 0.00 0.00 0.02 63 1016.2
20210616005841 86 77 9.0 20.0 0.00 0.00 0.00 51 1015.5
20210616004841 90 236 0.0 5.0 0.00 0.00 0.00 61 1014.2
20210616003839 91 65 0.0 0.0 0.00 0.00 0.00 64 1014.3
20210616002838 92 65 0.0 0.0 0.00 0.00 0.00 62 1014.1
20210616001837 92 65 0.0 0.0 0.00 0.00 0.00 61 1014.1
20210616000836 92 64 0.0 0.0 0.00 0.00 0.00 61 1014.2
20210615235835 92 62 0.0 4.0 0.00 0.00 0.00 59 1014.1
20210615234834 92 78 0.0 0.0 0.00 0.00 0.00 59 1014.0
20210615233833 93 39 0.0 2.0 0.00 0.00 0.00 58 1013.8
20210615232832 92 91 0.0 3.0 0.00 0.00 0.00 57 1013.7
20210615231831 93 41 0.0 4.0 0.00 0.00 0.00 56 1013.7
20210615230830 93 342 0.0 5.0 0.00 0.00 0.00 57 1013.6
20210615225829 93 321 1.0 5.0 0.00 0.00 0.00 53 1013.5
20210615224828 94 296 0.0 4.0 0.00 0.00 0.00 52 1013.7
20210615223827 94 324 2.0 6.0 0.00 0.00 0.00 54 1013.9
20210615222826 94 98 1.0 3.0 0.00 0.00 0.00 52 1013.9
20210615221825 94 309 2.0 4.0 0.00 0.00 0.00 51 1013.8
20210615220824 94 338 0.0 5.0 0.00 0.00 0.00 55 1013.8
20210615215823 94 67 1.0 5.0 0.00 0.00 0.00 54 1013.8
20210615214822 94 8 3.0 5.0 0.00 0.00 0.00 54 1014.0
20210615213821 93 38 1.0 8.0 0.00 0.00 0.00 53 1014.0
20210615212819 93 306 2.0 7.0 0.00 0.00 0.00 55 1014.1
20210615211818 93 40 5.0 7.0 0.00 0.00 0.00 50 1014.2
20210615210817 94 316 5.0 8.0 0.00 0.00 0.00 53 1014.3
20210615205817 94 9 2.0 6.0 0.00 0.00 0.00 56 1014.4
20210615204815 93 41 2.0 9.0 0.00 0.00 0.00 53 1014.5
20210615203814 94 325 2.0 7.0 0.00 0.00 0.00 53 1014.8
20210615202813 94 36 0.0 7.0 0.00 0.00 0.00 56 1014.8
20210615201812 94 331 2.0 8.0 0.00 0.00 0.00 53 1014.9
20210615200811 93 314 2.0 7.0 0.00 0.00 0.00 54 1015.0
20210615195810 93 10 5.0 10.0 0.00 0.00 0.00 53 1015.2
20210615194809 94 340 3.0 7.0 0.00 0.00 0.00 55 1015.2
20210615193808 94 39 5.0 7.0 0.00 0.00 0.00 52 1015.3
20210615192807 94 326 1.0 5.0 0.00 0.00 0.00 52 1015.3
20210615191806 93 352 2.0 7.0 0.00 0.00 0.00 54 1015.3
20210615190805 94 317 4.0 5.0 0.00 0.00 0.00 54 1015.4
20210615185804 94 52 3.0 7.0 0.00 0.00 0.00 54 1015.4
20210615184803 93 348 1.0 7.0 0.00 0.00 0.00 56 1015.5
20210615183802 93 64 2.0 6.0 0.00 0.00 0.00 53 1015.6
20210615182801 93 94 1.0 7.0 0.00 0.00 0.00 52 1015.7
20210615181800 93 326 3.0 6.0 0.00 0.00 0.00 53 1015.8
20210615180759 92 343 3.0 8.0 0.00 0.00 0.00 56 1015.9
20210615175758 92 83 1.0 8.0 0.00 0.00 0.00 59 1016.0
20210615174757 93 99 5.0 7.0 0.00 0.00 0.00 57 1015.8
20210615173756 92 302 5.0 6.0 0.00 0.00 0.00 55 1015.9
20210615172755 93 304 2.0 11.0 0.00 0.00 0.00 57 1015.9
20210615171754 93 35 0.0 6.0 0.00 0.00 0.00 54 1016.0
20210615170753 92 49 1.0 7.0 0.00 0.00 0.00 63 1016.0
20210615165752 92 303 2.0 7.0 0.00 0.00 0.00 60 1016.1
20210615164751 92 100 2.0 5.0 0.00 0.00 0.00 60 1016.1
20210615163750 92 75 2.0 5.0 0.00 0.00 0.00 63 1016.1
20210615162749 91 34 3.0 5.0 0.00 0.00 0.00 61 1016.1
20210615161748 92 90 0.0 2.0 0.00 0.00 0.00 69 1016.1
20210615160747 91 93 2.0 5.0 0.00 0.00 0.00 69 1016.1
20210615155746 90 105 1.0 5.0 0.00 0.00 0.00 69 1016.0
20210615154744 91 97 3.0 4.0 0.00 0.00 0.00 71 1016.0
20210615153743 90 86 2.0 5.0 0.00 0.00 0.00 70 1016.0
20210615152742 90 24 0.0 4.0 0.00 0.00 0.00 71 1016.1
20210615151741 89 86 0.0 4.0 0.00 0.00 0.00 74 1016.0
20210615150740 88 89 2.0 5.0 0.00 0.00 0.00 76 1016.2
20210615145739 89 127 1.0 5.0 0.00 0.00 0.00 75 1016.1
20210615144738 88 108 0.0 4.0 0.00 0.00 0.00 77 1016.2
20210615143737 88 108 0.0 5.0 0.00 0.00 0.00 76 1016.3
20210615142736 87 28 2.0 4.0 0.00 0.00 0.00 78 1016.3
20210615141735 87 97 0.0 3.0 0.00 0.00 0.00 79 1016.4
20210615140734 88 94 3.0 3.0 0.00 0.00 0.00 79 1016.2
20210615135733 88 108 0.0 0.0 0.00 0.00 0.00 78 1016.2
20210615134732 87 109 0.0 0.0 0.00 0.00 0.00 81 1016.1
20210615133731 85 109 0.0 0.0 0.00 0.00 0.00 83 1015.9
20210615132730 84 110 0.0 0.0 0.00 0.00 0.00 85 1015.8
20210615131729 83 110 0.0 1.0 0.00 0.00 0.00 85 1015.8
20210615130728 82 110 0.0 2.0 0.00 0.00 0.00 84 1015.5
20210615125727 82 120 0.0 0.0 0.00 0.00 0.00 82 1015.5
20210615124726 81 120 0.0 0.0 0.00 0.00 0.00 77 1015.7
20210615123725 79 120 0.0 2.0 0.00 0.00 0.00 78 1015.6
20210615122724 79 120 0.0 0.0 0.00 0.00 0.00 77 1015.6
20210615121723 78 240 0.0 0.0 0.00 0.00 0.00 77 1015.5
20210615120722 77 240 0.0 0.0 0.00 0.00 0.00 78 1015.5
20210615115721 76 241 0.0 0.0 0.00 0.00 0.00 78 1015.4
20210615114720 76 241 0.0 0.0 0.00 0.00 0.00 78 1015.4
20210615113719 76 241 0.0 0.0 0.00 0.00 0.00 78 1015.3
20210615112718 75 241 0.0 0.0 0.00 0.00 0.00 79 1015.1
20210615111717 75 241 0.0 0.0 0.00 0.00 0.00 79 1015.0
20210615110716 75 241 0.0 0.0 0.00 0.00 0.00 79 1014.9
20210615105715 74 241 0.0 0.0 0.00 0.00 0.00 79 1014.9
20210615104714 75 241 0.0 0.0 0.00 0.00 0.00 79 1014.8
20210615103713 75 241 0.0 0.0 0.00 0.00 0.00 80 1014.8
20210615102712 75 241 0.0 0.0 0.00 0.00 0.00 80 1014.7
20210615101711 75 241 0.0 0.0 0.00 0.00 0.00 80 1014.6
20210615100710 75 241 0.0 0.0 0.00 0.00 0.00 80 1014.6
20210615095708 75 241 0.0 0.0 0.00 0.00 0.00 80 1014.7
20210615094707 75 241 0.0 0.0 0.00 0.00 0.00 80 1014.4
20210615093706 76 241 0.0 0.0 0.00 0.00 0.00 80 1014.3
20210615092705 76 241 0.0 0.0 0.00 0.00 0.00 80 1014.3
20210615091704 76 241 0.0 0.0 0.00 0.00 0.00 80 1014.3
20210615090703 76 241 0.0 0.0 0.00 0.00 0.00 80 1014.4
20210615085702 76 241 0.0 0.0 0.00 0.00 0.00 80 1014.5
20210615084701 76 241 0.0 0.0 0.00 0.00 0.00 80 1014.4
20210615083700 76 241 0.0 0.0 0.00 0.00 0.00 80 1014.4
20210615082659 76 241 0.0 0.0 0.00 0.00 0.00 80 1014.4
20210615081658 76 241 0.0 0.0 0.00 0.00 0.00 80 1014.4
20210615080657 76 241 0.0 0.0 0.00 0.00 0.00 81 1014.4
20210615075656 76 241 0.0 0.0 0.00 0.00 0.00 81 1014.4
20210615074655 76 241 0.0 0.0 0.00 0.00 0.00 81 1014.3
20210615073654 76 241 0.0 0.0 0.00 0.00 0.00 81 1014.4
20210615072653 76 241 0.0 0.0 0.00 0.00 0.00 81 1014.2
20210615071652 76 241 0.0 0.0 0.00 0.00 0.00 81 1014.2
20210615070651 76 241 0.0 0.0 0.00 0.00 0.00 81 1014.2
20210615065650 76 241 0.0 0.0 0.00 0.00 0.00 82 1014.3
20210615064649 76 241 0.0 0.0 0.00 0.00 0.00 82 1014.2
20210615063648 76 241 0.0 0.0 0.00 0.00 0.00 82 1014.3
20210615062647 76 241 0.0 0.0 0.00 0.00 0.00 82 1014.4
20210615061646 76 240 0.0 0.0 0.00 0.00 0.00 83 1014.4
20210615060645 76 240 0.0 0.0 0.00 0.00 0.00 83 1014.5
20210615055644 76 240 0.0 0.0 0.00 0.00 0.00 83 1014.3
20210615054643 76 240 0.0 0.0 0.00 0.00 0.00 83 1014.4
20210615053642 76 241 0.0 0.0 0.00 0.00 0.00 83 1014.3
20210615052641 76 241 0.0 0.0 0.00 0.00 0.00 84 1014.2
20210615051640 76 241 0.0 0.0 0.00 0.00 0.00 84 1014.2
20210615050639 76 241 0.0 0.0 0.00 0.00 0.00 84 1014.2
20210615045638 76 241 0.0 0.0 0.00 0.00 0.00 84 1014.3
20210615044637 77 241 0.0 0.0 0.00 0.00 0.00 84 1014.3
20210615043636 77 241 0.0 0.0 0.00 0.00 0.00 84 1014.3
20210615042635 77 241 0.0 3.0 0.00 0.00 0.00 84 1014.3
20210615041633 77 290 0.0 0.0 0.00 0.00 0.00 85 1014.4
20210615040632 77 290 0.0 0.0 0.00 0.00 0.00 85 1014.3
20210615035631 77 290 0.0 0.0 0.00 0.00 0.00 86 1014.3
20210615034630 77 290 0.0 1.0 0.00 0.00 0.00 86 1014.1
20210615033629 77 290 0.0 0.0 0.00 0.00 0.00 86 1014.1
20210615032628 77 290 0.0 0.0 0.00 0.00 0.00 86 1014.0
20210615031627 78 290 0.0 0.0 0.00 0.00 0.00 86 1013.9
20210615030626 78 290 0.0 0.0 0.00 0.00 0.00 86 1013.7
20210615025625 78 290 0.0 0.0 0.00 0.00 0.00 86 1013.7
20210615024624 78 290 0.0 0.0 0.00 0.00 0.00 86 1013.6
20210615023623 79 290 0.0 0.0 0.00 0.00 0.00 86 1013.5